createdAt,value
2022-12-31T00:00:15.111Z,100.00
2022-12-31T00:02:42.097Z,100.00
2022-12-31T00:05:09.774Z,100.00
2022-12-31T00:10:04.508Z,100.00
2022-12-31T00:12:31.475Z,100.00
2022-12-31T00:14:58.167Z,100.00
2022-12-31T00:17:25.061Z,100.00
2022-12-31T00:19:51.979Z,100.00
2022-12-31T00:22:18.778Z,100.00
2022-12-31T00:24:45.435Z,100.00
2022-12-31T00:27:13.554Z,100.00
2022-12-31T00:29:42.908Z,100.00
2022-12-31T00:32:09.527Z,100.00
2022-12-31T00:34:36.247Z,100.00
2022-12-31T00:37:02.961Z,100.00
2022-12-31T00:39:29.766Z,100.00
2022-12-31T00:41:56.458Z,100.00
2022-12-31T00:44:24.599Z,100.00
2022-12-31T00:46:51.296Z,100.00
2022-12-31T00:49:18.228Z,100.00
2022-12-31T00:51:46.732Z,100.00
2022-12-31T00:54:13.761Z,100.00
2022-12-31T00:56:40.814Z,100.00
2022-12-31T00:59:07.635Z,100.00
2022-12-31T01:01:38.073Z,100.00
2022-12-31T01:04:07.359Z,100.00
2022-12-31T01:06:34.147Z,100.00
2022-12-31T01:09:01.020Z,100.00
2022-12-31T01:11:30.691Z,100.00
2022-12-31T01:13:59.441Z,100.00
2022-12-31T01:16:27.753Z,100.00
2022-12-31T01:18:58.292Z,100.00
2022-12-31T01:21:25.240Z,100.00
2022-12-31T01:23:52.141Z,100.00
2022-12-31T01:26:19.801Z,100.00
2022-12-31T01:28:47.611Z,100.00
2022-12-31T01:31:15.869Z,100.00
2022-12-31T01:33:43.710Z,100.00
2022-12-31T01:36:13.996Z,100.00
2022-12-31T01:38:41.872Z,100.00
2022-12-31T01:41:12.296Z,100.00
2022-12-31T01:43:48.425Z,100.00
2022-12-31T01:46:23.883Z,100.00
2022-12-31T01:48:52.879Z,100.00
2022-12-31T01:51:21.806Z,100.00
2022-12-31T01:53:49.955Z,100.00
2022-12-31T01:56:18.280Z,100.00
2022-12-31T01:58:49.695Z,100.00
2022-12-31T02:01:22.125Z,100.00
2022-12-31T02:03:48.843Z,100.00
2022-12-31T02:06:20.285Z,100.00
2022-12-31T02:08:48.706Z,100.00
2022-12-31T02:11:26.116Z,100.00
2022-12-31T02:13:58.613Z,100.00
2022-12-31T02:16:34.474Z,100.00
2022-12-31T02:19:13.159Z,100.00
2022-12-31T02:21:50.916Z,100.00
2022-12-31T02:24:58.235Z,100.00
2022-12-31T02:27:40.104Z,100.00
2022-12-31T02:30:11.936Z,100.00
2022-12-31T02:32:54.880Z,100.00
2022-12-31T02:35:27.726Z,100.00
2022-12-31T02:38:01.650Z,100.00
2022-12-31T02:40:28.959Z,100.00
2022-12-31T02:42:55.971Z,100.00
2022-12-31T02:45:37.255Z,100.00
2022-12-31T02:48:37.615Z,100.00
2022-12-31T02:51:24.119Z,100.00
2022-12-31T02:54:11.599Z,100.00
2022-12-31T02:56:42.256Z,100.00
2022-12-31T02:59:34.126Z,100.00
2022-12-31T03:02:16.191Z,100.00
2022-12-31T03:04:46.093Z,100.00
2022-12-31T03:07:15.128Z,100.00
2022-12-31T03:09:41.884Z,100.00
2022-12-31T03:12:30.130Z,100.00
2022-12-31T03:14:57.034Z,100.00
2022-12-31T03:17:25.821Z,100.00
2022-12-31T03:20:11.469Z,100.00
2022-12-31T03:22:41.266Z,100.00
2022-12-31T03:25:30.040Z,100.00
2022-12-31T03:27:57.688Z,100.00
2022-12-31T03:30:25.246Z,100.00
2022-12-31T03:32:56.196Z,100.00
2022-12-31T03:35:23.475Z,100.00
2022-12-31T03:37:50.855Z,100.00
2022-12-31T03:40:20.120Z,100.00
2022-12-31T03:42:46.896Z,100.00
2022-12-31T03:45:15.606Z,100.00
2022-12-31T03:47:42.372Z,100.00
2022-12-31T03:50:12.523Z,100.00
2022-12-31T03:52:39.588Z,100.00
2022-12-31T03:55:07.348Z,100.00
2022-12-31T03:57:34.234Z,100.00
2022-12-31T04:00:00.965Z,100.00
2022-12-31T04:02:29.408Z,100.00
2022-12-31T04:04:56.350Z,100.00
2022-12-31T04:07:24.718Z,100.00
2022-12-31T04:09:51.652Z,100.00
2022-12-31T04:12:18.513Z,100.00
2022-12-31T04:14:45.110Z,100.00
2022-12-31T04:17:11.827Z,100.00
2022-12-31T04:19:38.644Z,100.00
2022-12-31T04:22:05.661Z,100.00
2022-12-31T04:24:33.814Z,100.00
2022-12-31T04:27:07.021Z,100.00
2022-12-31T04:29:34.132Z,100.00
2022-12-31T04:32:01.704Z,100.00
2022-12-31T04:34:28.452Z,100.00
2022-12-31T04:36:55.210Z,100.00
2022-12-31T04:39:21.927Z,100.00
2022-12-31T04:41:50.090Z,100.00
2022-12-31T04:44:17.220Z,100.00
2022-12-31T04:46:44.234Z,100.00
2022-12-31T04:49:11.197Z,100.00
2022-12-31T04:51:38.378Z,100.00
2022-12-31T04:54:05.217Z,100.00
2022-12-31T04:56:32.735Z,100.00
2022-12-31T04:59:00.802Z,100.00
2022-12-31T05:01:27.727Z,100.00
2022-12-31T05:03:54.771Z,100.00
2022-12-31T05:06:23.479Z,100.00
2022-12-31T05:08:50.526Z,100.00
2022-12-31T05:11:17.776Z,100.00
2022-12-31T05:13:44.705Z,100.00
2022-12-31T05:16:12.833Z,100.00
2022-12-31T05:18:39.540Z,100.00
2022-12-31T05:21:06.825Z,100.00
2022-12-31T05:23:33.941Z,100.00
2022-12-31T05:26:01.747Z,100.00
2022-12-31T05:28:28.569Z,100.00
2022-12-31T05:30:55.926Z,100.00
2022-12-31T05:33:24.031Z,100.00
2022-12-31T05:35:50.772Z,100.00
2022-12-31T05:38:17.651Z,100.00
2022-12-31T05:40:44.703Z,100.00
2022-12-31T05:43:11.671Z,100.00
2022-12-31T05:45:38.504Z,100.00
2022-12-31T05:48:06.188Z,100.00
2022-12-31T05:50:34.234Z,100.00
2022-12-31T05:53:00.921Z,100.00
2022-12-31T05:55:27.715Z,100.00
2022-12-31T05:57:54.536Z,100.00
2022-12-31T06:00:24.626Z,100.00
2022-12-31T06:02:51.360Z,100.00
2022-12-31T06:05:24.163Z,100.00
2022-12-31T06:07:54.106Z,100.00
2022-12-31T06:10:20.777Z,100.00
2022-12-31T06:12:47.701Z,100.00
2022-12-31T06:15:14.395Z,100.00
2022-12-31T06:17:41.127Z,100.00
2022-12-31T06:20:12.746Z,100.00
2022-12-31T06:22:40.114Z,100.00
2022-12-31T06:25:11.586Z,100.00
2022-12-31T06:27:38.358Z,100.00
2022-12-31T06:30:06.099Z,100.00
2022-12-31T06:32:32.939Z,100.00
2022-12-31T06:34:59.672Z,100.00
2022-12-31T06:37:26.448Z,100.00
2022-12-31T06:39:53.229Z,100.00
2022-12-31T06:42:21.268Z,100.00
2022-12-31T06:44:48.117Z,100.00
2022-12-31T06:47:14.791Z,100.00
2022-12-31T06:49:41.444Z,100.00
2022-12-31T06:52:08.410Z,100.00
2022-12-31T06:54:35.793Z,100.00
2022-12-31T06:57:03.075Z,100.00
2022-12-31T06:59:31.775Z,100.00
2022-12-31T07:02:12.606Z,100.00
2022-12-31T07:05:02.479Z,100.00
2022-12-31T07:07:34.099Z,100.00
2022-12-31T07:10:11.131Z,100.00
2022-12-31T07:12:58.507Z,100.00
2022-12-31T07:15:40.857Z,100.00
2022-12-31T07:18:20.526Z,100.00
2022-12-31T07:20:47.910Z,100.00
2022-12-31T07:23:15.248Z,100.00
2022-12-31T07:25:50.073Z,100.00
2022-12-31T07:28:27.830Z,100.00
2022-12-31T07:31:02.904Z,100.00
2022-12-31T07:33:51.668Z,100.00
2022-12-31T07:36:31.445Z,100.00
2022-12-31T07:39:05.738Z,100.00
2022-12-31T07:41:48.720Z,100.00
2022-12-31T07:44:33.527Z,100.00
2022-12-31T07:47:05.061Z,100.00
2022-12-31T07:49:33.989Z,100.00
2022-12-31T07:52:01.336Z,100.00
2022-12-31T07:54:28.073Z,100.00
2022-12-31T07:56:55.117Z,100.00
2022-12-31T07:59:34.447Z,100.00
2022-12-31T08:02:13.726Z,100.00
2022-12-31T08:04:49.652Z,100.00
2022-12-31T08:07:22.435Z,100.00
2022-12-31T08:10:02.186Z,100.00
2022-12-31T08:12:34.369Z,100.00
2022-12-31T08:15:01.739Z,100.00
2022-12-31T08:17:30.383Z,100.00
2022-12-31T08:19:57.605Z,100.00
2022-12-31T08:22:59.667Z,100.00
2022-12-31T08:25:34.578Z,100.00
2022-12-31T08:28:12.223Z,100.00
2022-12-31T08:30:56.252Z,100.00
2022-12-31T08:33:29.074Z,100.00
2022-12-31T08:36:10.997Z,100.00
2022-12-31T08:38:47.815Z,100.00
2022-12-31T08:41:24.722Z,100.00
2022-12-31T08:44:02.942Z,100.00
2022-12-31T08:46:34.494Z,100.00
2022-12-31T08:49:03.137Z,100.00
2022-12-31T08:51:30.887Z,100.00
2022-12-31T08:53:58.217Z,100.00
2022-12-31T08:56:30.474Z,100.00
2022-12-31T08:59:15.125Z,100.00
2022-12-31T09:01:56.775Z,100.00
2022-12-31T09:04:31.473Z,100.00
2022-12-31T09:07:01.811Z,100.00
2022-12-31T09:09:39.429Z,100.00
2022-12-31T09:12:13.749Z,100.00
2022-12-31T09:14:47.558Z,100.00
2022-12-31T09:17:38.240Z,100.00
2022-12-31T09:20:14.079Z,100.00
2022-12-31T09:22:41.466Z,100.00
2022-12-31T09:25:13.362Z,100.00
2022-12-31T09:27:46.306Z,100.00
2022-12-31T09:30:16.207Z,100.00
2022-12-31T09:32:51.923Z,100.00
2022-12-31T09:35:35.717Z,100.00
2022-12-31T09:38:11.662Z,100.00
2022-12-31T09:41:11.499Z,100.00
2022-12-31T09:44:04.927Z,100.00
2022-12-31T09:47:06.707Z,100.00
2022-12-31T09:50:18.444Z,100.00
2022-12-31T09:53:06.099Z,100.00
2022-12-31T09:55:37.332Z,100.00
2022-12-31T09:58:27.457Z,100.00
2022-12-31T10:01:02.108Z,100.00
2022-12-31T10:03:42.783Z,100.00
2022-12-31T10:06:21.580Z,100.00
2022-12-31T10:09:06.817Z,100.00
2022-12-31T10:12:00.327Z,100.00
2022-12-31T10:14:47.683Z,100.00
2022-12-31T10:17:28.597Z,100.00
2022-12-31T10:20:16.354Z,100.00
2022-12-31T10:22:53.130Z,100.00
2022-12-31T10:25:39.203Z,100.00
2022-12-31T10:28:18.274Z,100.00
2022-12-31T10:30:54.366Z,100.00
2022-12-31T10:33:33.661Z,100.00
2022-12-31T10:36:08.212Z,100.00
2022-12-31T10:38:45.961Z,100.00
2022-12-31T10:41:46.597Z,100.00
2022-12-31T10:44:35.357Z,100.00
2022-12-31T10:47:43.493Z,100.00
2022-12-31T10:50:33.529Z,100.00
2022-12-31T10:53:38.406Z,100.00
2022-12-31T10:56:31.002Z,100.00
2022-12-31T10:59:31.541Z,100.00
2022-12-31T11:02:22.470Z,100.00
2022-12-31T11:05:28.016Z,100.00
2022-12-31T11:08:02.740Z,100.00
2022-12-31T11:11:08.544Z,100.00
2022-12-31T11:14:23.000Z,100.00
2022-12-31T11:17:02.580Z,100.00
2022-12-31T11:19:37.783Z,100.00
2022-12-31T11:22:23.836Z,100.00
2022-12-31T11:25:14.562Z,100.00
2022-12-31T11:27:53.753Z,100.00
2022-12-31T11:30:24.517Z,100.00
2022-12-31T11:33:11.103Z,100.00
2022-12-31T11:35:52.556Z,100.00
2022-12-31T11:38:25.017Z,100.00
2022-12-31T11:41:05.404Z,100.00
2022-12-31T11:43:38.522Z,100.00
2022-12-31T11:46:25.450Z,100.00
2022-12-31T11:49:21.874Z,100.00
2022-12-31T11:52:04.143Z,100.00
2022-12-31T11:54:45.803Z,100.00
2022-12-31T11:57:23.421Z,100.00
2022-12-31T11:59:55.575Z,100.00
2022-12-31T12:02:28.241Z,100.00
2022-12-31T12:05:03.686Z,100.00
2022-12-31T12:07:35.153Z,100.00
2022-12-31T12:10:15.387Z,100.00
2022-12-31T12:12:42.760Z,100.00
2022-12-31T12:15:11.469Z,100.00
2022-12-31T12:17:39.273Z,100.00
2022-12-31T12:20:15.546Z,100.00
2022-12-31T12:22:49.777Z,100.00
2022-12-31T12:25:19.362Z,100.00
2022-12-31T12:27:47.406Z,100.00
2022-12-31T12:30:21.470Z,100.00
2022-12-31T12:32:53.700Z,100.00
2022-12-31T12:35:26.977Z,100.00
2022-12-31T12:38:01.616Z,100.00
2022-12-31T12:40:33.831Z,100.00
2022-12-31T12:43:02.617Z,100.00
2022-12-31T12:45:37.968Z,100.00
2022-12-31T12:48:13.026Z,100.00
2022-12-31T12:50:45.060Z,100.00
2022-12-31T12:53:19.985Z,100.00
2022-12-31T12:55:54.279Z,100.00
2022-12-31T12:58:34.338Z,100.00
2022-12-31T13:01:10.047Z,100.00
2022-12-31T13:07:14.407Z,100.00
2022-12-31T13:09:56.769Z,100.00
2022-12-31T13:12:48.821Z,100.00
2022-12-31T13:15:26.255Z,100.00
2022-12-31T13:18:03.251Z,100.00
2022-12-31T13:20:35.325Z,100.00
2022-12-31T13:23:13.236Z,100.00
2022-12-31T13:25:55.204Z,100.00
2022-12-31T13:28:24.839Z,100.00
2022-12-31T13:31:01.764Z,100.00
2022-12-31T13:33:37.344Z,100.00
2022-12-31T13:36:08.098Z,100.00
2022-12-31T13:38:40.172Z,100.00
2022-12-31T13:41:13.205Z,100.00
2022-12-31T13:43:50.654Z,100.00
2022-12-31T13:46:25.455Z,100.00
2022-12-31T13:48:56.339Z,100.00
2022-12-31T13:51:29.852Z,100.00
2022-12-31T13:54:05.685Z,100.00
2022-12-31T13:56:37.740Z,100.00
2022-12-31T13:59:13.762Z,100.00
2022-12-31T14:01:44.078Z,100.00
2022-12-31T14:04:16.964Z,100.00
2022-12-31T14:06:49.516Z,100.00
2022-12-31T14:09:22.725Z,100.00
2022-12-31T14:12:13.489Z,100.00
2022-12-31T14:14:46.215Z,100.00
2022-12-31T14:17:23.229Z,100.00
2022-12-31T14:20:01.882Z,100.00
2022-12-31T14:22:37.589Z,100.00
2022-12-31T14:25:15.769Z,100.00
2022-12-31T14:27:44.779Z,100.00
2022-12-31T14:30:16.598Z,100.00
2022-12-31T14:33:05.311Z,100.00
2022-12-31T14:35:52.303Z,100.00
2022-12-31T14:38:33.833Z,100.00
2022-12-31T14:41:22.850Z,100.00
2022-12-31T14:44:01.503Z,100.00
2022-12-31T14:46:36.288Z,100.00
2022-12-31T14:49:21.265Z,100.00
2022-12-31T14:51:48.068Z,100.00
2022-12-31T14:54:29.436Z,100.00
2022-12-31T14:56:57.565Z,99.77
2022-12-31T14:59:27.815Z,100.00
2022-12-31T15:01:55.278Z,99.77
2022-12-31T15:04:32.503Z,99.89
2022-12-31T15:07:08.263Z,99.85
2022-12-31T15:09:59.388Z,99.23
2022-12-31T15:12:46.864Z,99.05
2022-12-31T15:15:58.152Z,98.72
2022-12-31T15:18:52.442Z,98.93
2022-12-31T15:21:40.935Z,99.41
2022-12-31T15:24:19.221Z,99.28
2022-12-31T15:26:52.479Z,97.96
2022-12-31T15:29:26.615Z,96.65
2022-12-31T15:31:54.501Z,96.89
2022-12-31T15:34:26.347Z,96.71
2022-12-31T15:36:55.736Z,95.57
2022-12-31T15:39:26.372Z,94.85
2022-12-31T15:44:50.144Z,92.60
2022-12-31T15:47:27.910Z,92.25
2022-12-31T15:49:55.661Z,92.73
2022-12-31T15:52:27.567Z,91.75
2022-12-31T15:54:56.919Z,89.85
2022-12-31T15:57:32.304Z,90.13
2022-12-31T16:00:05.111Z,90.89
2022-12-31T16:02:32.111Z,90.27
2022-12-31T16:04:58.964Z,90.59
2022-12-31T16:07:28.427Z,90.06
2022-12-31T16:09:58.710Z,90.36
2022-12-31T16:12:33.560Z,90.41
2022-12-31T16:15:03.304Z,90.43
2022-12-31T16:17:32.721Z,89.63
2022-12-31T16:20:00.790Z,89.46
2022-12-31T16:22:35.694Z,89.71
2022-12-31T16:25:29.697Z,90.06
2022-12-31T16:27:50.666Z,90.70
2022-12-31T16:30:22.997Z,90.82
2022-12-31T16:32:51.251Z,88.48
2022-12-31T16:35:24.053Z,88.82
2022-12-31T16:38:10.179Z,88.36
2022-12-31T16:40:37.511Z,88.15
2022-12-31T16:43:04.593Z,88.14
2022-12-31T16:45:35.438Z,88.39
2022-12-31T16:48:16.404Z,86.82
2022-12-31T16:50:45.292Z,86.98
2022-12-31T16:53:14.584Z,87.78
2022-12-31T16:55:41.883Z,87.64
2022-12-31T16:58:21.578Z,87.47
2022-12-31T17:00:51.057Z,87.73
2022-12-31T17:03:20.714Z,87.06
2022-12-31T17:05:57.028Z,86.42
2022-12-31T17:08:26.099Z,85.57
2022-12-31T17:10:53.424Z,86.92
2022-12-31T17:13:29.694Z,88.47
2022-12-31T17:15:59.371Z,87.00
2022-12-31T17:18:30.348Z,86.61
2022-12-31T17:21:06.799Z,85.39
2022-12-31T17:23:35.899Z,86.95
2022-12-31T17:26:10.359Z,86.63
2022-12-31T17:28:44.103Z,85.77
2022-12-31T17:31:29.062Z,84.78
2022-12-31T17:34:32.673Z,85.22
2022-12-31T17:37:17.677Z,100.00
2022-12-31T17:39:50.571Z,84.42
2022-12-31T17:42:28.331Z,85.05
2022-12-31T17:44:58.698Z,84.84
2022-12-31T17:47:33.587Z,83.54
2022-12-31T17:50:06.643Z,83.08
2022-12-31T17:52:33.347Z,83.66
2022-12-31T17:55:00.087Z,83.63
2022-12-31T17:57:28.149Z,83.33
2022-12-31T17:59:55.088Z,82.65
2022-12-31T18:02:21.888Z,82.02
2022-12-31T18:04:50.149Z,82.70
2022-12-31T18:07:16.988Z,81.71
2022-12-31T18:09:43.778Z,82.16
2022-12-31T18:12:12.462Z,81.41
2022-12-31T18:14:39.678Z,81.82
2022-12-31T18:17:09.267Z,82.10
2022-12-31T18:20:03.774Z,81.00
2022-12-31T18:22:24.098Z,80.25
2022-12-31T18:24:54.284Z,80.39
2022-12-31T18:27:21.059Z,80.77
2022-12-31T18:29:47.977Z,81.55
2022-12-31T18:32:20.558Z,82.27
2022-12-31T18:34:47.472Z,82.24
2022-12-31T18:37:21.475Z,82.48
2022-12-31T18:39:50.332Z,81.26
2022-12-31T18:42:18.906Z,81.44
2022-12-31T18:44:46.339Z,100.00
2022-12-31T18:47:14.240Z,100.00
2022-12-31T18:49:41.573Z,100.00
2022-12-31T18:52:13.128Z,100.00
2022-12-31T18:54:39.890Z,100.00
2022-12-31T18:57:10.239Z,100.00
2022-12-31T18:59:37.128Z,100.00
2022-12-31T19:02:04.506Z,100.00
2022-12-31T19:04:31.351Z,100.00
2022-12-31T19:06:58.256Z,100.00
2022-12-31T19:12:14.380Z,77.19
2022-12-31T19:14:41.278Z,76.94
2022-12-31T19:19:34.820Z,75.73
2022-12-31T19:22:02.568Z,75.83
2022-12-31T19:24:29.451Z,73.73
2022-12-31T19:26:56.207Z,74.63
2022-12-31T19:29:26.081Z,74.59
2022-12-31T19:31:53.532Z,73.83
2022-12-31T19:34:20.333Z,72.47
2022-12-31T19:36:46.959Z,72.46
2022-12-31T19:39:16.758Z,72.67
2022-12-31T19:41:44.324Z,73.57
2022-12-31T19:44:14.307Z,73.58
2022-12-31T19:46:42.398Z,74.01
2022-12-31T19:49:10.772Z,72.94
2022-12-31T19:51:37.627Z,72.58
2022-12-31T19:54:05.941Z,73.84
2022-12-31T19:56:32.735Z,73.61
2022-12-31T19:59:03.997Z,72.80
2022-12-31T20:01:30.711Z,72.40
2022-12-31T20:03:58.917Z,72.72
2022-12-31T20:06:25.860Z,72.45
2022-12-31T20:08:52.731Z,100.00
2022-12-31T20:11:21.633Z,70.98
2022-12-31T20:13:49.766Z,71.63
2022-12-31T20:16:18.321Z,71.76
2022-12-31T20:18:47.176Z,71.38
2022-12-31T20:21:20.788Z,71.84
2022-12-31T20:23:47.993Z,70.99
2022-12-31T20:26:15.002Z,71.09
2022-12-31T20:28:41.916Z,69.69
2022-12-31T20:31:09.632Z,68.81
2022-12-31T20:33:36.790Z,69.26
2022-12-31T20:36:05.152Z,68.77
2022-12-31T20:38:36.610Z,69.37
2022-12-31T20:41:05.070Z,70.24
2022-12-31T20:43:32.628Z,70.27
2022-12-31T20:45:59.824Z,70.85
2022-12-31T20:48:26.689Z,71.43
2022-12-31T20:50:57.358Z,72.40
2022-12-31T20:53:24.325Z,72.51
2022-12-31T20:55:52.475Z,72.37
2022-12-31T20:58:19.228Z,72.62
2022-12-31T21:00:48.406Z,71.70
2022-12-31T21:03:53.737Z,71.95
2022-12-31T21:06:02.319Z,71.54
2022-12-31T21:08:34.999Z,70.14
2022-12-31T21:11:23.837Z,70.71
2022-12-31T21:13:51.099Z,70.39
2022-12-31T21:16:18.273Z,70.39
2022-12-31T21:18:45.168Z,70.74
2022-12-31T21:21:12.520Z,70.78
2022-12-31T21:23:39.666Z,70.48
2022-12-31T21:26:08.434Z,70.57
2022-12-31T21:28:35.235Z,70.03
2022-12-31T21:31:04.265Z,70.86
2022-12-31T21:33:31.191Z,70.86
2022-12-31T21:36:04.118Z,70.20
2022-12-31T21:38:31.584Z,69.72
2022-12-31T21:41:02.144Z,69.60
2022-12-31T21:43:30.206Z,69.80
2022-12-31T21:46:01.727Z,70.11
2022-12-31T21:48:28.546Z,69.71
2022-12-31T21:51:04.417Z,69.88
2022-12-31T21:53:36.600Z,69.34
2022-12-31T21:56:11.912Z,69.42
2022-12-31T21:58:41.673Z,69.57
2022-12-31T22:01:33.653Z,69.91
2022-12-31T22:04:00.633Z,71.27
2022-12-31T22:06:27.617Z,71.32
2022-12-31T22:08:55.882Z,72.40
2022-12-31T22:11:24.880Z,71.99
2022-12-31T22:13:53.760Z,72.64
2022-12-31T22:16:21.498Z,73.33
2022-12-31T22:18:49.529Z,74.41
2022-12-31T22:21:19.937Z,73.20
2022-12-31T22:23:48.637Z,73.20
2022-12-31T22:26:17.690Z,73.61
2022-12-31T22:28:45.820Z,74.84
2022-12-31T22:31:30.601Z,75.01
2022-12-31T22:33:58.586Z,74.51
2022-12-31T22:36:25.462Z,75.04
2022-12-31T22:38:58.221Z,75.55
2022-12-31T22:41:26.121Z,75.69
2022-12-31T22:44:02.572Z,75.72
2022-12-31T22:46:33.255Z,75.80
2022-12-31T22:49:01.713Z,75.75
2022-12-31T22:51:57.671Z,76.81
2022-12-31T22:54:16.463Z,76.39
2022-12-31T22:56:43.334Z,76.79
2022-12-31T22:59:10.244Z,76.35
2022-12-31T23:01:38.514Z,76.03
2022-12-31T23:04:05.361Z,76.35
2022-12-31T23:06:32.445Z,76.74
2022-12-31T23:09:18.019Z,75.84
2022-12-31T23:11:44.740Z,76.98
2022-12-31T23:14:35.075Z,76.77
2022-12-31T23:17:31.563Z,76.80
2022-12-31T23:20:17.834Z,77.09
2022-12-31T23:23:03.768Z,78.55
2022-12-31T23:25:34.544Z,79.57
2022-12-31T23:28:01.853Z,79.79
2022-12-31T23:30:28.832Z,79.92
2022-12-31T23:32:57.055Z,80.55
2022-12-31T23:35:23.805Z,81.13
2022-12-31T23:37:50.576Z,81.42
2022-12-31T23:40:21.521Z,81.63
2022-12-31T23:42:49.110Z,82.08
2022-12-31T23:45:16.117Z,81.71
2022-12-31T23:47:42.926Z,82.17
2022-12-31T23:50:11.058Z,81.95
2022-12-31T23:52:37.818Z,82.61
2022-12-31T23:55:05.064Z,82.47
2022-12-31T23:57:31.909Z,83.00
2022-12-31T23:59:58.753Z,82.52
